createdAt,value
2018-07-06T00:02:34.228Z,19.30
2018-07-06T00:05:13.670Z,19.50
2018-07-06T00:07:52.936Z,19.40
2018-07-06T00:10:33.012Z,19.00
2018-07-06T00:13:12.596Z,19.00
2018-07-06T00:15:51.966Z,19.20
2018-07-06T00:18:31.464Z,19.10
2018-07-06T00:21:10.993Z,18.90
2018-07-06T00:23:50.540Z,18.80
2018-07-06T00:26:29.661Z,18.70
2018-07-06T00:29:09.191Z,18.80
2018-07-06T00:31:48.601Z,19.20
2018-07-06T00:34:28.137Z,19.10
2018-07-06T00:37:07.601Z,19.20
2018-07-06T00:39:46.892Z,18.80
2018-07-06T00:42:26.330Z,18.90
2018-07-06T00:45:05.869Z,18.70
2018-07-06T00:47:45.166Z,18.90
2018-07-06T00:50:25.418Z,19.00
2018-07-06T00:53:05.581Z,19.00
2018-07-06T00:55:45.895Z,19.10
2018-07-06T00:58:25.284Z,19.10
2018-07-06T01:01:04.830Z,19.10
2018-07-06T01:03:44.407Z,19.20
2018-07-06T01:06:23.699Z,18.90
2018-07-06T01:09:03.985Z,18.80
2018-07-06T01:11:43.473Z,18.70
2018-07-06T01:14:23.044Z,18.70
2018-07-06T01:17:02.410Z,18.40
2018-07-06T01:19:41.896Z,19.00
2018-07-06T01:22:21.535Z,19.20
2018-07-06T01:25:00.953Z,18.70
2018-07-06T01:27:41.118Z,18.80
2018-07-06T01:30:20.560Z,18.80
2018-07-06T01:33:00.132Z,18.90
2018-07-06T01:35:39.474Z,18.90
2018-07-06T01:38:18.895Z,18.70
2018-07-06T01:40:58.219Z,18.50
2018-07-06T01:43:37.771Z,18.70
2018-07-06T01:46:17.429Z,18.70
2018-07-06T01:48:56.650Z,18.60
2018-07-06T01:51:36.847Z,18.70
2018-07-06T01:54:16.334Z,18.70
2018-07-06T01:56:55.828Z,18.60
2018-07-06T01:59:35.403Z,18.70
2018-07-06T02:02:14.951Z,18.80
2018-07-06T02:04:54.482Z,18.50
2018-07-06T02:07:33.963Z,18.40
2018-07-06T02:10:13.513Z,18.50
2018-07-06T02:12:53.037Z,18.60
2018-07-06T02:15:32.532Z,18.40
2018-07-06T02:18:11.786Z,18.30
2018-07-06T02:20:51.972Z,18.80
2018-07-06T02:23:31.395Z,18.80
2018-07-06T02:26:10.824Z,18.50
2018-07-06T02:28:50.325Z,18.50
2018-07-06T02:31:29.809Z,18.40
2018-07-06T02:34:09.296Z,18.50
2018-07-06T02:36:48.720Z,18.50
2018-07-06T02:39:28.152Z,18.30
2018-07-06T02:42:07.593Z,18.20
2018-07-06T02:44:46.936Z,18.20
2018-07-06T02:47:26.326Z,18.20
2018-07-06T02:50:05.792Z,18.40
2018-07-06T02:52:45.139Z,18.20
2018-07-06T02:55:24.615Z,18.20
2018-07-06T02:58:04.172Z,18.40
2018-07-06T03:00:43.636Z,18.50
2018-07-06T03:03:23.063Z,18.70
2018-07-06T03:06:02.552Z,18.30
2018-07-06T03:08:42.144Z,18.30
2018-07-06T03:11:21.475Z,18.20
2018-07-06T03:14:00.907Z,18.40
2018-07-06T03:16:40.382Z,18.40
2018-07-06T03:19:20.674Z,18.10
2018-07-06T03:22:00.137Z,18.10
2018-07-06T03:24:39.493Z,17.90
2018-07-06T03:27:18.945Z,18.20
2018-07-06T03:29:59.161Z,18.20
2018-07-06T03:32:38.547Z,18.30
2018-07-06T03:35:18.128Z,18.20
2018-07-06T03:37:57.526Z,18.00
2018-07-06T03:40:36.911Z,18.00
2018-07-06T03:43:16.429Z,18.40
2018-07-06T03:45:55.695Z,18.50
2018-07-06T03:48:35.972Z,18.40
2018-07-06T03:51:15.560Z,18.40
2018-07-06T03:53:54.860Z,18.40
2018-07-06T03:56:34.329Z,18.10
2018-07-06T03:59:13.587Z,18.00
2018-07-06T04:01:53.764Z,17.80
2018-07-06T04:04:33.241Z,17.80
2018-07-06T04:07:12.579Z,18.10
2018-07-06T04:09:52.020Z,18.10
2018-07-06T04:12:31.271Z,18.30
2018-07-06T04:15:11.611Z,18.00
2018-07-06T04:17:52.465Z,18.00
2018-07-06T04:20:31.691Z,18.00
2018-07-06T04:23:11.234Z,18.20
2018-07-06T04:25:50.676Z,18.20
2018-07-06T04:28:29.944Z,18.10
2018-07-06T04:31:09.338Z,18.10
2018-07-06T04:33:48.672Z,18.20
2018-07-06T04:36:28.031Z,18.10
2018-07-06T04:39:08.205Z,18.00
2018-07-06T04:41:47.684Z,17.90
2018-07-06T04:44:27.120Z,17.90
2018-07-06T04:47:06.412Z,18.10
2018-07-06T04:49:46.138Z,18.10
2018-07-06T04:52:25.392Z,18.20
2018-07-06T04:55:05.135Z,18.40
2018-07-06T04:57:44.657Z,18.10
2018-07-06T05:00:24.883Z,18.00
2018-07-06T05:03:04.296Z,18.00
2018-07-06T05:05:43.781Z,18.10
2018-07-06T05:08:23.266Z,18.30
2018-07-06T05:11:03.345Z,18.30
2018-07-06T05:13:43.575Z,18.20
2018-07-06T05:16:23.009Z,18.10
2018-07-06T05:19:02.263Z,18.20
2018-07-06T05:21:42.497Z,18.40
2018-07-06T05:24:21.759Z,18.40
2018-07-06T05:27:01.228Z,18.30
2018-07-06T05:29:40.683Z,18.30
2018-07-06T05:32:20.128Z,18.10
2018-07-06T05:34:59.404Z,18.40
2018-07-06T05:37:38.885Z,18.70
2018-07-06T05:40:18.424Z,18.60
2018-07-06T05:42:57.777Z,18.40
2018-07-06T05:45:37.302Z,18.40
2018-07-06T05:48:16.824Z,18.40
2018-07-06T05:50:56.043Z,18.50
2018-07-06T05:53:35.560Z,18.50
2018-07-06T05:56:15.752Z,18.80
2018-07-06T05:58:55.126Z,18.80
2018-07-06T06:01:35.441Z,18.50
2018-07-06T06:04:14.795Z,18.50
2018-07-06T06:06:54.203Z,18.60
2018-07-06T06:09:22.433Z,18.40
2018-07-06T06:11:50.776Z,18.60
2018-07-06T06:14:18.339Z,18.50
2018-07-06T06:16:45.822Z,18.60
2018-07-06T06:19:14.342Z,18.70
2018-07-06T06:21:41.844Z,18.80
2018-07-06T06:24:09.310Z,18.80
2018-07-06T06:26:36.760Z,18.60
2018-07-06T06:29:04.245Z,18.60
2018-07-06T06:31:31.808Z,18.80
2018-07-06T06:33:59.405Z,18.80
2018-07-06T06:36:26.729Z,18.60
2018-07-06T06:38:54.189Z,18.90
2018-07-06T06:41:21.745Z,18.80
2018-07-06T06:43:49.308Z,18.70
2018-07-06T06:46:16.766Z,18.80
2018-07-06T06:48:44.343Z,19.00
2018-07-06T06:51:11.805Z,19.20
2018-07-06T06:53:39.278Z,19.30
2018-07-06T06:56:06.752Z,19.40
2018-07-06T06:58:34.975Z,19.40
2018-07-06T07:01:02.509Z,19.40
2018-07-06T07:03:29.933Z,19.50
2018-07-06T07:05:57.387Z,19.50
2018-07-06T07:08:24.850Z,19.60
2018-07-06T07:10:52.325Z,19.70
2018-07-06T07:13:19.765Z,19.90
2018-07-06T07:15:47.232Z,19.80
2018-07-06T07:18:14.812Z,19.80
2018-07-06T07:20:43.038Z,19.90
2018-07-06T07:23:10.549Z,19.90
2018-07-06T07:25:38.053Z,20.10
2018-07-06T07:28:05.568Z,20.40
2018-07-06T07:30:33.036Z,20.40
2018-07-06T07:33:00.496Z,20.40
2018-07-06T07:35:27.966Z,20.50
2018-07-06T07:37:56.760Z,20.50
2018-07-06T07:40:24.224Z,20.50
2018-07-06T07:42:52.455Z,20.60
2018-07-06T07:45:19.931Z,20.60
2018-07-06T07:47:47.399Z,20.70
2018-07-06T07:50:14.874Z,20.80
2018-07-06T07:53:03.116Z,20.80
2018-07-06T07:55:30.571Z,21.10
2018-07-06T07:57:58.135Z,21.10
2018-07-06T08:00:25.755Z,21.10
2018-07-06T08:02:53.151Z,21.10
2018-07-06T08:05:20.625Z,21.00
2018-07-06T08:07:48.061Z,21.00
2018-07-06T08:10:15.512Z,20.90
2018-07-06T08:12:43.010Z,20.90
2018-07-06T08:15:10.472Z,21.00
2018-07-06T08:17:37.943Z,21.10
2018-07-06T08:20:06.517Z,21.20
2018-07-06T08:22:34.299Z,21.10
2018-07-06T08:25:01.767Z,21.10
2018-07-06T08:27:30.747Z,21.40
2018-07-06T08:29:58.191Z,21.40
2018-07-06T08:32:25.663Z,21.70
2018-07-06T08:35:05.011Z,21.60
2018-07-06T08:37:44.339Z,21.40
2018-07-06T08:40:11.820Z,21.60
2018-07-06T08:42:39.293Z,21.80
2018-07-06T08:45:07.539Z,21.70
2018-07-06T08:47:35.067Z,21.70
2018-07-06T08:50:02.536Z,22.00
2018-07-06T08:52:29.999Z,22.00
2018-07-06T08:54:57.503Z,22.00
2018-07-06T08:57:24.972Z,22.00
2018-07-06T08:59:52.421Z,22.00
2018-07-06T09:02:19.992Z,22.00
2018-07-06T09:04:47.554Z,22.00
2018-07-06T09:07:14.915Z,22.10
2018-07-06T09:09:42.471Z,22.40
2018-07-06T09:12:09.946Z,22.40
2018-07-06T09:14:37.502Z,22.60
2018-07-06T09:17:04.960Z,22.70
2018-07-06T09:19:32.606Z,22.80
2018-07-06T09:22:00.000Z,22.80
2018-07-06T09:24:27.547Z,22.80
2018-07-06T09:26:55.074Z,22.90
2018-07-06T09:29:22.540Z,23.00
2018-07-06T09:31:49.999Z,23.10
2018-07-06T09:34:17.458Z,23.00
2018-07-06T09:36:44.928Z,22.90
2018-07-06T09:39:12.385Z,23.00
2018-07-06T09:41:39.839Z,23.20
2018-07-06T09:44:07.412Z,23.30
2018-07-06T09:46:34.878Z,23.50
2018-07-06T09:49:02.335Z,23.30
2018-07-06T09:51:29.799Z,23.10
2018-07-06T09:53:57.338Z,23.00
2018-07-06T09:56:25.579Z,23.10
2018-07-06T09:58:53.134Z,23.10
2018-07-06T10:01:20.578Z,23.00
2018-07-06T10:03:48.043Z,22.90
2018-07-06T10:06:15.490Z,23.10
2018-07-06T10:08:43.059Z,23.20
2018-07-06T10:11:10.568Z,23.20
2018-07-06T10:13:38.023Z,23.10
2018-07-06T10:16:05.473Z,23.00
2018-07-06T10:18:32.930Z,23.10
2018-07-06T10:21:00.611Z,23.20
2018-07-06T10:23:28.071Z,23.30
2018-07-06T10:25:55.531Z,23.10
2018-07-06T10:28:23.008Z,23.10
2018-07-06T10:30:50.571Z,23.00
2018-07-06T10:33:18.190Z,23.10
2018-07-06T10:35:45.597Z,23.30
2018-07-06T10:38:13.155Z,23.50
2018-07-06T10:40:40.605Z,23.50
2018-07-06T10:43:08.063Z,23.40
2018-07-06T10:45:35.537Z,23.20
2018-07-06T10:48:03.005Z,23.10
2018-07-06T10:50:30.563Z,23.30
2018-07-06T10:52:58.124Z,23.30
2018-07-06T10:55:25.587Z,23.60
2018-07-06T10:57:53.173Z,23.80
2018-07-06T11:00:21.435Z,24.00
2018-07-06T11:02:48.912Z,24.00
2018-07-06T11:05:17.176Z,24.00
2018-07-06T11:07:44.627Z,24.00
2018-07-06T11:10:12.200Z,24.00
2018-07-06T11:12:39.660Z,24.20
2018-07-06T11:15:07.117Z,24.30
2018-07-06T11:17:34.595Z,24.10
2018-07-06T11:20:02.047Z,24.00
2018-07-06T11:22:29.507Z,24.20
2018-07-06T11:24:56.983Z,24.10
2018-07-06T11:27:24.543Z,24.30
2018-07-06T11:29:51.993Z,24.30
2018-07-06T11:32:19.453Z,24.30
2018-07-06T11:34:46.907Z,24.50
2018-07-06T11:37:14.390Z,24.70
2018-07-06T11:39:42.225Z,24.70
2018-07-06T11:42:09.707Z,24.80
2018-07-06T11:44:37.190Z,24.70
2018-07-06T11:47:04.700Z,24.80
2018-07-06T11:49:32.160Z,24.90
2018-07-06T11:51:59.621Z,24.80
2018-07-06T11:54:27.091Z,24.90
2018-07-06T11:56:54.601Z,25.00
2018-07-06T11:59:22.068Z,25.10
2018-07-06T12:01:49.994Z,24.90
2018-07-06T12:04:17.536Z,24.90
2018-07-06T12:06:45.060Z,25.00
2018-07-06T12:09:12.515Z,25.00
2018-07-06T12:11:39.964Z,24.90
2018-07-06T12:14:07.447Z,25.10
2018-07-06T12:16:35.380Z,25.20
2018-07-06T12:19:02.840Z,25.10
2018-07-06T12:21:30.383Z,25.10
2018-07-06T12:23:57.802Z,24.90
2018-07-06T12:26:25.261Z,25.00
2018-07-06T12:28:52.712Z,24.70
2018-07-06T12:31:20.175Z,24.90
2018-07-06T12:33:47.645Z,25.00
2018-07-06T12:36:15.117Z,25.10
2018-07-06T12:38:42.584Z,24.90
2018-07-06T12:41:10.156Z,24.90
2018-07-06T12:43:37.594Z,25.00
2018-07-06T12:46:05.075Z,25.30
2018-07-06T12:48:32.531Z,25.40
2018-07-06T12:51:00.518Z,25.40
2018-07-06T12:53:28.781Z,25.30
2018-07-06T12:55:56.352Z,25.30
2018-07-06T12:58:23.990Z,25.40
2018-07-06T13:00:51.369Z,25.50
2018-07-06T13:03:18.837Z,25.40
2018-07-06T13:05:46.293Z,25.30
2018-07-06T13:08:13.938Z,25.30
2018-07-06T13:10:41.377Z,25.50
2018-07-06T13:13:08.848Z,25.40
2018-07-06T13:15:36.364Z,25.10
2018-07-06T13:18:03.816Z,24.90
2018-07-06T13:20:31.266Z,25.00
2018-07-06T13:22:58.745Z,25.20
2018-07-06T13:25:26.194Z,25.20
2018-07-06T13:27:53.653Z,25.30
2018-07-06T13:30:21.105Z,25.20
2018-07-06T13:32:48.596Z,25.60
2018-07-06T13:35:16.048Z,25.40
2018-07-06T13:37:43.506Z,25.40
2018-07-06T13:40:10.992Z,25.50
2018-07-06T13:42:39.208Z,25.70
2018-07-06T13:45:06.707Z,25.70
2018-07-06T13:47:34.159Z,25.80
2018-07-06T13:50:01.645Z,25.90
2018-07-06T13:52:29.095Z,25.90
2018-07-06T13:54:56.624Z,25.90
2018-07-06T13:57:24.090Z,26.00
2018-07-06T13:59:51.542Z,26.10
2018-07-06T14:02:19.004Z,26.20
2018-07-06T14:04:46.511Z,26.40
2018-07-06T14:07:13.991Z,26.50
2018-07-06T14:09:42.209Z,26.50
2018-07-06T14:12:09.890Z,26.40
2018-07-06T14:14:37.354Z,26.40
2018-07-06T14:17:04.808Z,26.40
2018-07-06T14:19:32.282Z,26.40
2018-07-06T14:21:59.735Z,26.40
2018-07-06T14:24:27.232Z,26.20
2018-07-06T14:26:54.706Z,26.50
2018-07-06T14:29:22.163Z,26.50
2018-07-06T14:31:49.625Z,26.60
2018-07-06T14:34:17.183Z,26.90
2018-07-06T14:36:44.644Z,26.80
2018-07-06T14:39:12.114Z,26.50
2018-07-06T14:41:39.564Z,26.10
2018-07-06T14:44:07.030Z,25.90
2018-07-06T14:46:34.500Z,26.20
2018-07-06T14:49:02.956Z,26.30
2018-07-06T14:51:30.427Z,26.60
2018-07-06T14:53:57.910Z,26.10
2018-07-06T14:56:25.353Z,26.20
2018-07-06T14:58:52.820Z,25.80
2018-07-06T15:01:20.290Z,25.40
2018-07-06T15:03:47.753Z,25.70
2018-07-06T15:06:15.206Z,25.70
2018-07-06T15:08:42.731Z,26.00
2018-07-06T15:11:10.932Z,25.90
2018-07-06T15:13:38.429Z,25.90
2018-07-06T15:16:05.901Z,25.80
2018-07-06T15:18:34.127Z,26.60
2018-07-06T15:21:01.580Z,26.60
2018-07-06T15:23:29.029Z,26.20
2018-07-06T15:25:57.264Z,26.40
2018-07-06T15:28:24.839Z,26.30
2018-07-06T15:30:52.283Z,26.50
2018-07-06T15:33:19.742Z,26.50
2018-07-06T15:35:47.202Z,26.30
2018-07-06T15:38:14.667Z,26.30
2018-07-06T15:40:42.108Z,26.40
2018-07-06T15:43:09.612Z,26.80
2018-07-06T15:45:38.588Z,25.80
2018-07-06T15:48:06.049Z,25.80
2018-07-06T15:50:33.513Z,25.70
2018-07-06T15:53:02.102Z,27.90
2018-07-06T15:55:29.681Z,27.90
2018-07-06T15:57:58.640Z,28.60
2018-07-06T16:00:26.096Z,28.60
2018-07-06T16:02:53.559Z,28.60
2018-07-06T16:05:21.025Z,28.60
2018-07-06T16:07:49.918Z,28.50
2018-07-06T16:10:17.371Z,28.30
2018-07-06T16:12:44.828Z,28.30
2018-07-06T16:15:12.275Z,28.30
2018-07-06T16:17:40.507Z,28.40
2018-07-06T16:20:07.956Z,28.40
2018-07-06T16:22:35.423Z,28.50
2018-07-06T16:25:02.908Z,28.50
2018-07-06T16:27:30.473Z,28.50
2018-07-06T16:29:57.944Z,28.40
2018-07-06T16:32:25.422Z,28.40
2018-07-06T16:34:53.664Z,28.30
2018-07-06T16:37:21.127Z,28.30
2018-07-06T16:39:48.603Z,28.30
2018-07-06T16:42:16.079Z,28.30
2018-07-06T16:44:43.534Z,28.10
2018-07-06T16:47:11.015Z,28.30
2018-07-06T16:49:38.566Z,28.40
2018-07-06T16:52:06.876Z,28.40
2018-07-06T16:54:34.326Z,28.40
2018-07-06T16:57:02.547Z,28.70
2018-07-06T16:59:30.016Z,28.70
2018-07-06T17:01:57.489Z,28.80
2018-07-06T17:04:26.039Z,28.60
2018-07-06T17:06:53.516Z,28.30
2018-07-06T17:09:20.982Z,28.30
2018-07-06T17:11:48.491Z,28.20
2018-07-06T17:14:15.973Z,28.20
2018-07-06T17:16:43.500Z,28.20
2018-07-06T17:19:11.065Z,28.20
2018-07-06T17:21:38.521Z,28.20
2018-07-06T17:24:06.119Z,28.30
2018-07-06T17:26:34.911Z,28.60
2018-07-06T17:29:02.448Z,28.50
2018-07-06T17:31:29.932Z,28.30
2018-07-06T17:33:57.391Z,28.10
2018-07-06T17:36:24.952Z,28.00
2018-07-06T17:38:53.174Z,27.70
2018-07-06T17:41:20.641Z,27.70
2018-07-06T17:43:48.862Z,27.70
2018-07-06T17:46:16.307Z,27.70
2018-07-06T17:48:43.776Z,27.70
2018-07-06T17:51:11.233Z,27.80
2018-07-06T17:53:38.690Z,27.70
2018-07-06T17:56:06.148Z,27.70
2018-07-06T17:58:33.618Z,27.70
2018-07-06T18:01:01.091Z,27.50
2018-07-06T18:03:29.435Z,27.30
2018-07-06T18:05:56.896Z,27.10
2018-07-06T18:08:24.358Z,27.00
2018-07-06T18:10:51.824Z,26.80
2018-07-06T18:13:19.282Z,26.70
2018-07-06T18:15:46.762Z,26.90
2018-07-06T18:18:14.257Z,26.80
2018-07-06T18:20:41.704Z,27.00
2018-07-06T18:23:09.383Z,27.00
2018-07-06T18:25:36.782Z,26.90
2018-07-06T18:28:05.005Z,27.00
2018-07-06T18:30:32.459Z,27.00
2018-07-06T18:32:59.939Z,27.00
2018-07-06T18:35:27.409Z,27.10
2018-07-06T18:37:54.877Z,26.80
2018-07-06T18:40:23.852Z,26.80
2018-07-06T18:42:51.327Z,26.90
2018-07-06T18:45:18.798Z,26.70
2018-07-06T18:47:46.248Z,26.90
2018-07-06T18:50:13.720Z,26.50
2018-07-06T18:52:41.292Z,26.60
2018-07-06T18:55:10.268Z,27.10
2018-07-06T18:57:37.835Z,27.10
2018-07-06T19:00:05.411Z,26.80
2018-07-06T19:02:32.925Z,26.80
2018-07-06T19:05:00.390Z,26.70
2018-07-06T19:07:27.859Z,26.50
2018-07-06T19:09:55.330Z,26.50
2018-07-06T19:12:22.792Z,26.70
2018-07-06T19:14:50.284Z,26.70
2018-07-06T19:17:17.725Z,26.60
2018-07-06T19:19:45.295Z,26.40
2018-07-06T19:22:13.244Z,26.50
2018-07-06T19:24:40.733Z,26.40
2018-07-06T19:27:08.305Z,26.30
2018-07-06T19:29:35.871Z,26.10
2018-07-06T19:32:03.339Z,26.10
2018-07-06T19:34:31.586Z,26.20
2018-07-06T19:36:59.053Z,26.20
2018-07-06T19:39:26.532Z,26.10
2018-07-06T19:41:54.004Z,26.30
2018-07-06T19:44:21.563Z,26.00
2018-07-06T19:46:49.030Z,25.90
2018-07-06T19:49:16.494Z,26.00
2018-07-06T19:51:45.532Z,25.60
2018-07-06T19:54:13.057Z,25.60
2018-07-06T19:56:40.568Z,25.70
2018-07-06T19:59:08.107Z,25.70
2018-07-06T20:01:36.401Z,25.80
2018-07-06T20:04:03.807Z,25.70
2018-07-06T20:06:31.298Z,25.80
2018-07-06T20:08:59.509Z,25.70
2018-07-06T20:11:27.020Z,25.70
2018-07-06T20:13:54.476Z,25.40
2018-07-06T20:16:21.945Z,25.40
2018-07-06T20:18:49.515Z,25.10
2018-07-06T20:21:17.735Z,23.10
2018-07-06T20:23:45.252Z,23.10
2018-07-06T20:26:12.720Z,22.00
2018-07-06T20:28:40.168Z,21.90
2018-07-06T20:31:07.631Z,22.10
2018-07-06T20:33:35.102Z,21.70
2018-07-06T20:36:02.551Z,21.40
2018-07-06T20:38:30.126Z,21.30
2018-07-06T20:40:57.582Z,21.50
2018-07-06T20:43:25.353Z,21.60
2018-07-06T20:45:52.780Z,21.70
2018-07-06T20:48:20.276Z,21.60
2018-07-06T20:50:47.736Z,21.30
2018-07-06T20:53:15.212Z,21.10
2018-07-06T20:55:42.676Z,21.10
2018-07-06T20:58:10.910Z,20.70
2018-07-06T21:00:38.365Z,20.60
2018-07-06T21:03:05.849Z,20.80
2018-07-06T21:05:33.318Z,21.10
2018-07-06T21:08:00.794Z,21.20
2018-07-06T21:10:28.293Z,21.20
2018-07-06T21:12:56.508Z,21.30
2018-07-06T21:15:23.971Z,21.30
2018-07-06T21:17:52.140Z,21.20
2018-07-06T21:20:19.612Z,20.90
2018-07-06T21:22:47.064Z,20.90
2018-07-06T21:25:14.553Z,21.00
2018-07-06T21:27:42.136Z,20.70
2018-07-06T21:30:10.400Z,20.80
2018-07-06T21:32:37.971Z,20.80
2018-07-06T21:35:05.497Z,21.00
2018-07-06T21:37:32.955Z,20.90
2018-07-06T21:40:00.415Z,20.60
2018-07-06T21:42:27.884Z,20.50
2018-07-06T21:44:55.367Z,20.60
2018-07-06T21:47:22.819Z,21.00
2018-07-06T21:49:50.295Z,20.90
2018-07-06T21:52:17.780Z,20.80
2018-07-06T21:54:45.619Z,20.60
2018-07-06T21:57:13.082Z,20.80
2018-07-06T21:59:40.539Z,20.60
2018-07-06T22:02:08.011Z,20.30
2018-07-06T22:04:35.482Z,20.80
2018-07-06T22:07:02.952Z,20.60
2018-07-06T22:09:30.513Z,20.50
2018-07-06T22:11:57.987Z,20.30
2018-07-06T22:14:25.555Z,20.30
2018-07-06T22:16:53.010Z,20.00
2018-07-06T22:19:20.570Z,19.80
2018-07-06T22:21:48.181Z,19.60
2018-07-06T22:24:15.696Z,19.80
2018-07-06T22:26:43.283Z,20.10
2018-07-06T22:29:10.741Z,20.20
2018-07-06T22:31:38.209Z,20.30
2018-07-06T22:34:05.674Z,20.30
2018-07-06T22:36:33.909Z,20.60
2018-07-06T22:39:01.377Z,20.60
2018-07-06T22:41:28.858Z,20.00
2018-07-06T22:43:56.319Z,20.00
2018-07-06T22:46:23.782Z,19.90
2018-07-06T22:48:52.048Z,20.10
2018-07-06T22:51:19.614Z,20.10
2018-07-06T22:53:47.193Z,19.70
2018-07-06T22:56:14.660Z,19.60
2018-07-06T22:58:42.892Z,19.90
2018-07-06T23:01:10.365Z,19.90
2018-07-06T23:03:37.837Z,19.80
2018-07-06T23:06:05.300Z,19.70
2018-07-06T23:08:32.880Z,19.90
2018-07-06T23:11:00.336Z,19.70
2018-07-06T23:13:28.187Z,19.60
2018-07-06T23:15:55.635Z,19.40
2018-07-06T23:18:23.130Z,19.50
2018-07-06T23:20:50.703Z,19.20
2018-07-06T23:23:18.938Z,19.50
2018-07-06T23:25:46.406Z,19.40
2018-07-06T23:28:13.897Z,19.70
2018-07-06T23:30:41.373Z,19.70
2018-07-06T23:33:08.829Z,19.50
2018-07-06T23:35:36.396Z,19.60
2018-07-06T23:38:05.367Z,19.40
2018-07-06T23:40:32.855Z,19.40
2018-07-06T23:43:01.081Z,19.90
2018-07-06T23:45:28.583Z,19.80
2018-07-06T23:47:56.156Z,19.70
2018-07-06T23:50:23.615Z,19.70
2018-07-06T23:52:51.134Z,19.40
2018-07-06T23:55:18.599Z,19.50
2018-07-06T23:57:46.065Z,19.50
